Time;durP1;ratioP1;P1;durP2;ratioP2;P2;SDS_P1;SDS_P2;PMS_P1;PMS_P2;Temp;Humidity;BMP_temperature;BMP_pressure;BME280_temperature;BME280_humidity;BME280_pressure;Samples;Min_cycle;Max_cycle;Signal;HPM_P1;HPM_P2
2023/12/09 00:02:43;;;;;;;50.00;31.30;;;;;;;-4.15;100.00;99613.31;436719;1256;140744;-61
2023/12/09 00:12:50;;;;;;;47.80;29.80;;;;;;;-4.12;100.00;99617.58;435806;1260;141199;-61
2023/12/09 00:22:56;;;;;;;53.10;30.80;;;;;;;-4.13;100.00;99615.88;432648;1258;140644;-61
2023/12/09 00:33:02;;;;;;;49.00;28.60;;;;;;;-4.16;100.00;99610.92;433462;1260;140845;-62
2023/12/09 00:43:09;;;;;;;44.90;27.30;;;;;;;-4.14;100.00;99617.23;432673;1257;140187;-61
2023/12/09 00:53:15;;;;;;;49.10;28.50;;;;;;;-4.12;100.00;99617.75;432991;1259;140878;-61
2023/12/09 01:03:21;;;;;;;48.20;28.10;;;;;;;-4.11;100.00;99612.77;432880;1259;140043;-61
2023/12/09 01:13:30;;;;;;;50.90;27.80;;;;;;;-4.13;100.00;99606.63;432162;1260;285945;-60
2023/12/09 01:23:37;;;;;;;53.20;26.80;;;;;;;-4.14;100.00;99599.64;434159;1260;141161;-61
2023/12/09 01:33:44;;;;;;;49.30;28.60;;;;;;;-4.13;100.00;99590.05;435020;1258;140607;-61
2023/12/09 01:43:51;;;;;;;48.40;27.90;;;;;;;-4.12;100.00;99582.86;437451;1258;141947;-61
2023/12/09 01:53:58;;;;;;;46.80;26.70;;;;;;;-4.08;100.00;99576.54;435654;1258;140317;-60
2023/12/09 02:04:06;;;;;;;55.50;30.90;;;;;;;-4.07;100.00;99559.59;433461;1260;141212;-61
2023/12/09 02:14:20;;;;;;;54.30;31.10;;;;;;;-4.05;100.00;99548.64;432877;1260;140918;-61
2023/12/09 02:24:27;;;;;;;55.00;29.90;;;;;;;-4.04;100.00;99547.43;433850;1260;140158;-61
2023/12/09 02:34:34;;;;;;;48.80;28.60;;;;;;;-4.01;100.00;99553.40;432591;1260;140689;-60
2023/12/09 02:44:42;;;;;;;52.40;28.70;;;;;;;-3.98;100.00;99551.86;432902;1260;140295;-62
2023/12/09 02:54:49;;;;;;;51.10;27.70;;;;;;;-3.95;100.00;99550.29;432507;1260;140417;-62
2023/12/09 03:04:55;;;;;;;51.00;27.60;;;;;;;-3.90;100.00;99538.46;434510;1260;140378;-60
2023/12/09 03:15:05;;;;;;;51.40;28.40;;;;;;;-3.85;100.00;99537.41;432555;1258;141631;-61
2023/12/09 03:25:12;;;;;;;48.70;28.10;;;;;;;-3.80;100.00;99536.87;433022;1260;141853;-59
2023/12/09 03:35:18;;;;;;;48.00;28.30;;;;;;;-3.75;100.00;99537.52;433031;1260;140094;-61
2023/12/09 03:45:24;;;;;;;50.10;29.60;;;;;;;-3.69;100.00;99535.77;433456;1260;141200;-62
2023/12/09 03:55:30;;;;;;;49.30;24.80;;;;;;;-3.63;100.00;99531.63;435841;1257;140636;-61
2023/12/09 04:05:36;;;;;;;47.60;29.60;;;;;;;-3.58;100.00;99527.48;434291;1259;141190;-61
2023/12/09 04:15:43;;;;;;;51.80;28.30;;;;;;;-3.52;100.00;99515.45;432444;1260;140568;-61
2023/12/09 04:25:49;;;;;;;43.80;26.60;;;;;;;-3.47;100.00;99515.77;444905;1256;140217;-61
2023/12/09 04:35:56;;;;;;;49.70;28.50;;;;;;;-3.40;100.00;99511.09;433532;1260;140342;-61
2023/12/09 04:46:02;;;;;;;42.70;27.20;;;;;;;-3.33;100.00;99507.26;432476;1260;141546;-61
2023/12/09 04:56:10;;;;;;;49.00;29.80;;;;;;;-3.26;100.00;99505.50;433260;1260;141925;-60
2023/12/09 05:06:17;;;;;;;48.30;29.40;;;;;;;-3.21;100.00;99491.77;433351;1257;140305;-61
2023/12/09 05:16:23;;;;;;;53.40;31.60;;;;;;;-3.15;100.00;99491.18;437116;1258;140096;-61
2023/12/09 05:26:30;;;;;;;47.90;28.90;;;;;;;-3.10;100.00;99500.21;432664;1257;141208;-61
2023/12/09 05:36:39;;;;;;;49.40;30.00;;;;;;;-3.03;100.00;99485.77;433039;1260;140401;-61
2023/12/09 05:46:45;;;;;;;41.80;27.70;;;;;;;-2.99;100.00;99486.41;434901;1258;140729;-61
2023/12/09 05:56:51;;;;;;;44.90;26.50;;;;;;;-2.97;100.00;99487.75;434458;1260;140151;-61
2023/12/09 06:06:58;;;;;;;46.10;28.20;;;;;;;-2.96;100.00;99488.93;433966;1255;140763;-60
2023/12/09 06:17:04;;;;;;;46.90;30.00;;;;;;;-2.96;100.00;99488.60;435097;1257;141483;-61
2023/12/09 06:27:10;;;;;;;43.20;25.80;;;;;;;-2.92;100.00;99487.02;434893;1257;140831;-61
2023/12/09 06:37:17;;;;;;;45.30;27.00;;;;;;;-2.86;100.00;99478.73;432482;1258;140562;-61
2023/12/09 06:47:24;;;;;;;41.40;27.30;;;;;;;-2.80;100.00;99489.46;449894;1254;140316;-62
2023/12/09 06:57:30;;;;;;;40.70;25.90;;;;;;;-2.71;100.00;99491.06;433064;1254;140182;-61
2023/12/09 07:07:37;;;;;;;43.00;28.20;;;;;;;-2.60;100.00;99494.38;432568;1260;141088;-61
2023/12/09 07:17:43;;;;;;;40.40;26.90;;;;;;;-2.50;100.00;99490.32;432878;1258;141066;-62
2023/12/09 07:27:50;;;;;;;45.60;29.10;;;;;;;-2.40;100.00;99489.00;432726;1260;140366;-61
2023/12/09 07:37:57;;;;;;;42.30;31.10;;;;;;;-2.26;100.00;99492.23;434396;1255;140662;-61
2023/12/09 07:48:03;;;;;;;44.10;30.40;;;;;;;-2.15;100.00;99493.98;434262;1257;141000;-60
2023/12/09 07:58:11;;;;;;;54.40;33.40;;;;;;;-2.01;100.00;99493.98;437427;1255;139620;-61
2023/12/09 08:08:17;;;;;;;44.70;29.90;;;;;;;-1.88;100.00;99487.27;437127;1254;140639;-61
2023/12/09 08:18:23;;;;;;;44.30;28.90;;;;;;;-1.72;100.00;99480.34;432685;1254;139741;-61
2023/12/09 08:28:30;;;;;;;44.10;30.00;;;;;;;-1.61;100.00;99479.83;435467;1257;140112;-60
2023/12/09 08:38:36;;;;;;;46.60;31.30;;;;;;;-1.46;100.00;99475.13;432773;1259;140051;-60
2023/12/09 08:48:42;;;;;;;47.70;34.30;;;;;;;-1.25;100.00;99468.59;432937;1257;139727;-61
2023/12/09 08:58:47;;;;;;;;;;;;;;;-1.05;100.00;99457.77;432782;1254;140440;-61
2023/12/09 09:08:53;;;;;;;42.80;29.80;;;;;;;-0.89;100.00;99451.60;432762;1255;125794;-61
2023/12/09 09:18:58;;;;;;;;;;;;;;;-0.77;100.00;99448.11;435965;1254;140786;-61
2023/12/09 09:29:04;;;;;;;46.30;32.50;;;;;;;-0.73;100.00;99439.78;432645;1260;128004;-62
2023/12/09 09:39:12;;;;;;;41.80;29.60;;;;;;;-0.66;100.00;99427.27;433005;1257;140630;-61
2023/12/09 09:49:24;;;;;;;40.60;28.20;;;;;;;-0.57;100.00;99414.70;433172;1259;141438;-61
2023/12/09 09:59:31;;;;;;;46.60;31.00;;;;;;;-0.51;100.00;99404.95;441521;1257;139563;-61
2023/12/09 10:09:38;;;;;;;42.80;30.80;;;;;;;-0.53;100.00;99399.84;432768;1257;140148;-63
2023/12/09 10:19:42;;;;;;;;;;;;;;;-0.55;100.00;99395.75;432676;1258;140308;-61
2023/12/09 10:29:49;;;;;;;37.60;27.40;;;;;;;-0.54;100.00;99383.02;433028;1257;127353;-61
2023/12/09 10:39:53;;;;;;;;;;;;;;;-0.48;100.00;99382.02;437074;1254;141114;-61
2023/12/09 10:50:00;;;;;;;42.80;30.00;;;;;;;-0.38;100.00;99366.33;432744;1257;127152;-61
2023/12/09 11:00:10;;;;;;;38.10;28.20;;;;;;;-0.34;100.00;99361.93;432651;1258;141260;-62
2023/12/09 11:10:19;;;;;;;43.20;31.40;;;;;;;-0.28;100.00;99353.19;433703;1259;140457;-62
2023/12/09 11:20:28;;;;;;;49.40;32.80;;;;;;;-0.25;100.00;99345.56;434543;1256;140566;-62
2023/12/09 11:30:37;;;;;;;49.30;34.50;;;;;;;-0.28;100.00;99340.12;434500;1256;141865;-62
2023/12/09 11:40:44;;;;;;;40.60;28.30;;;;;;;-0.24;100.00;99329.86;433946;1257;142668;-62
2023/12/09 11:50:51;;;;;;;36.20;27.90;;;;;;;-0.17;100.00;99316.81;433759;1257;140616;-61
2023/12/09 12:00:58;;;;;;;35.90;27.70;;;;;;;-0.11;100.00;99311.67;432792;1256;140222;-62
2023/12/09 12:11:05;;;;;;;48.10;33.80;;;;;;;-0.09;100.00;99316.27;436360;1257;140831;-62
2023/12/09 12:21:12;;;;;;;68.10;45.70;;;;;;;-0.10;100.00;99308.20;437711;1256;139883;-61
2023/12/09 12:31:18;;;;;;;49.70;35.70;;;;;;;-0.08;100.00;99301.43;432946;1257;141148;-61
2023/12/09 12:41:23;;;;;;;;;;;;;;;-0.08;100.00;99297.64;432776;1260;141492;-62
2023/12/09 12:51:30;;;;;;;28.20;22.70;;;;;;;-0.08;100.00;99288.89;432956;1256;127545;-60
2023/12/09 13:01:37;;;;;;;28.50;22.00;;;;;;;-0.06;100.00;99290.72;441895;1254;139969;-62
2023/12/09 13:11:42;;;;;;;;;;;;;;;-0.02;100.00;99282.17;433069;1255;207984;-61
2023/12/09 13:21:48;;;;;;;32.40;23.90;;;;;;;0.01;100.00;99274.73;435130;1257;128617;-61
2023/12/09 13:31:55;;;;;;;30.30;23.90;;;;;;;-0.04;100.00;99271.05;440095;1257;139853;-61
2023/12/09 13:42:00;;;;;;;;;;;;;;;-0.07;100.00;99265.29;435350;1255;141160;-61
2023/12/09 13:52:07;;;;;;;28.20;22.70;;;;;;;-0.09;100.00;99260.17;435222;1254;126508;-62
2023/12/09 14:02:14;;;;;;;33.40;25.50;;;;;;;-0.11;100.00;99252.13;433224;1257;141080;-61
2023/12/09 14:12:20;;;;;;;33.30;25.20;;;;;;;-0.12;100.00;99248.70;435817;1255;139946;-62
2023/12/09 14:22:27;;;;;;;32.50;23.90;;;;;;;-0.12;100.00;99245.97;433584;1255;141217;-62
2023/12/09 14:32:34;;;;;;;37.20;25.80;;;;;;;-0.15;100.00;99235.55;448522;1256;142236;-62
2023/12/09 14:42:40;;;;;;;34.50;24.70;;;;;;;-0.17;100.00;99228.89;432858;1259;143150;-62
2023/12/09 14:52:48;;;;;;;34.00;25.70;;;;;;;-0.19;100.00;99221.87;433456;1255;140105;-62
2023/12/09 15:02:54;;;;;;;28.70;22.80;;;;;;;-0.25;100.00;99205.69;437264;1255;140338;-62
2023/12/09 15:12:59;;;;;;;;;;;;;;;-0.29;100.00;99193.92;434317;1255;141003;-62
2023/12/09 15:23:06;;;;;;;31.50;22.90;;;;;;;-0.33;100.00;99185.25;435822;1258;126227;-62
2023/12/09 15:33:11;;;;;;;;;;;;;;;-0.34;100.00;99177.19;439603;1257;140147;-62
2023/12/09 15:43:17;;;;;;;32.00;23.40;;;;;;;-0.34;100.00;99156.73;434704;1255;128709;-62
2023/12/09 15:53:24;;;;;;;36.30;28.70;;;;;;;-0.36;100.00;99152.81;433396;1259;141076;-61
2023/12/09 16:03:29;;;;;;;;;;;;;;;-0.36;100.00;99145.26;434363;1260;139972;-62
2023/12/09 16:13:36;;;;;;;38.50;28.50;;;;;;;-0.36;100.00;99134.42;432669;1259;127053;-61
2023/12/09 16:23:41;;;;;;;;;;;;;;;-0.38;100.00;99131.36;434741;1256;140857;-62
2023/12/09 16:33:47;;;;;;;42.50;29.50;;;;;;;-0.37;100.00;99117.77;436894;1257;127547;-62
2023/12/09 16:43:54;;;;;;;36.80;29.40;;;;;;;-0.38;100.00;99111.25;434177;1258;140792;-62
2023/12/09 16:54:00;;;;;;;34.90;25.20;;;;;;;-0.36;100.00;99115.15;433135;1260;140493;-63
2023/12/09 17:04:06;;;;;;;;;;;;;;;-0.34;100.00;99121.47;441706;1259;141001;-62
2023/12/09 17:14:12;;;;;;;32.70;25.00;;;;;;;-0.32;100.00;99118.98;433115;1255;126791;-62
2023/12/09 17:24:19;;;;;;;26.30;21.10;;;;;;;-0.31;100.00;99110.02;434592;1258;141004;-62
2023/12/09 17:34:26;;;;;;;32.90;22.50;;;;;;;-0.34;100.00;99091.01;435634;1259;141155;-60
2023/12/09 17:44:34;;;;;;;30.90;24.60;;;;;;;-0.38;100.00;99075.14;432818;1254;141277;-64
2023/12/09 17:54:40;;;;;;;37.20;27.80;;;;;;;-0.42;100.00;99056.15;433052;1259;140279;-67
2023/12/09 18:04:45;;;;;;;;;;;;;;;-0.47;100.00;99035.30;432924;1260;140344;-66
2023/12/09 18:14:52;;;;;;;25.60;21.60;;;;;;;-0.52;100.00;99007.91;433246;1260;127641;-63
2023/12/09 18:24:59;;;;;;;26.20;20.60;;;;;;;-0.55;100.00;98993.05;432896;1258;140156;-64
2023/12/09 18:35:11;;;;;;;27.00;20.60;;;;;;;-0.57;100.00;98991.39;436791;1258;140789;-63
2023/12/09 18:45:17;;;;;;;24.90;19.40;;;;;;;-0.58;100.00;98985.38;437387;1256;142424;-63
2023/12/09 18:55:24;;;;;;;27.10;21.10;;;;;;;-0.57;100.00;98965.41;432418;1258;140060;-63
2023/12/09 19:05:31;;;;;;;;;;;;;;;-0.57;100.00;98966.63;433664;1258;141215;-62
2023/12/09 19:15:38;;;;;;;32.50;25.50;;;;;;;-0.61;100.00;98953.34;439053;1260;126387;-64
2023/12/09 19:25:47;;;;;;;29.40;21.90;;;;;;;-0.66;100.00;98931.30;434974;1258;140811;-64
2023/12/09 19:35:51;;;;;;;;;;;;;;;-0.72;100.00;98909.97;432690;1255;141505;-64
2023/12/09 19:45:58;;;;;;;32.20;24.70;;;;;;;-0.81;100.00;98896.33;432629;1260;126574;-63
2023/12/09 19:56:05;;;;;;;29.00;22.20;;;;;;;-0.92;100.00;98878.58;432222;1260;141989;-64
2023/12/09 20:06:11;;;;;;;33.40;25.90;;;;;;;-0.99;100.00;98881.68;436200;1256;141061;-63
2023/12/09 20:16:18;;;;;;;30.80;22.40;;;;;;;-1.02;100.00;98877.46;436366;1257;139984;-63
2023/12/09 20:26:23;;;;;;;;;;;;;;;-1.01;100.00;98875.89;436698;1260;141031;-64
2023/12/09 20:36:29;;;;;;;31.30;24.10;;;;;;;-0.99;100.00;98848.36;433445;1258;126643;-64
2023/12/09 20:46:34;;;;;;;;;;;;;;;-1.05;100.00;98838.59;437233;1255;140376;-65
2023/12/09 20:56:40;;;;;;;32.60;24.00;;;;;;;-1.21;100.00;98820.46;435267;1259;126689;-65
2023/12/09 21:06:45;;;;;;;;;;;;;;;-1.48;100.00;98832.17;433650;1260;140625;-63
2023/12/09 21:16:52;;;;;;;31.00;23.10;;;;;;;-1.63;100.00;98818.15;432461;1260;126659;-64
2023/12/09 21:26:58;;;;;;;29.60;21.10;;;;;;;-1.85;100.00;98813.58;435665;1259;140930;-64
2023/12/09 21:37:05;;;;;;;42.30;26.40;;;;;;;-2.01;100.00;98811.73;432533;1260;140241;-66
2023/12/09 21:47:11;;;;;;;32.00;24.20;;;;;;;-2.05;100.00;98803.29;432766;1260;140522;-64
2023/12/09 21:57:18;;;;;;;33.70;23.10;;;;;;;-2.23;100.00;98775.92;434120;1260;140481;-64
2023/12/09 22:07:24;;;;;;;27.20;21.30;;;;;;;-2.23;100.00;98775.42;438329;1259;139901;-64
2023/12/09 22:17:31;;;;;;;30.40;22.20;;;;;;;-2.15;100.00;98764.40;432411;1260;139971;-63
2023/12/09 22:27:37;;;;;;;31.10;23.30;;;;;;;-2.09;100.00;98746.77;433621;1259;141254;-63
2023/12/09 22:37:44;;;;;;;38.00;27.00;;;;;;;-2.11;100.00;98713.38;432842;1260;142171;-64
2023/12/09 22:47:50;;;;;;;34.60;24.70;;;;;;;-2.28;100.00;98688.11;434013;1259;140062;-63
2023/12/09 22:57:58;;;;;;;37.20;24.80;;;;;;;-2.51;100.00;98677.89;433416;1260;140709;-65
2023/12/09 23:08:05;;;;;;;38.00;25.80;;;;;;;-2.63;100.00;98675.80;435456;1257;139912;-64
2023/12/09 23:18:11;;;;;;;42.60;30.10;;;;;;;-2.62;100.00;98664.28;434118;1260;141351;-62
2023/12/09 23:28:17;;;;;;;49.40;35.10;;;;;;;-2.38;100.00;98667.62;433736;1260;140835;-62
2023/12/09 23:38:24;;;;;;;62.10;40.70;;;;;;;-2.13;100.00;98664.74;433315;1258;140370;-63
2023/12/09 23:48:30;;;;;;;65.00;41.30;;;;;;;-1.94;100.00;98665.24;433888;1260;140785;-63
2023/12/09 23:58:37;;;;;;;52.50;37.10;;;;;;;-1.75;100.00;98659.23;433923;1258;141267;-64
